createdAt,value
2019-05-16T00:01:39.862Z,9.25
2019-05-16T00:04:09.723Z,9.24
2019-05-16T00:06:39.297Z,9.18
2019-05-16T00:09:09.300Z,9.28
2019-05-16T00:11:39.683Z,9.17
2019-05-16T00:14:09.259Z,9.24
2019-05-16T00:16:39.552Z,9.29
2019-05-16T00:19:09.420Z,9.24
2019-05-16T00:21:39.239Z,9.24
2019-05-16T00:24:08.995Z,9.28
2019-05-16T00:26:39.035Z,9.28
2019-05-16T00:29:09.316Z,9.14
2019-05-16T00:31:38.937Z,9.10
2019-05-16T00:34:09.600Z,9.20
2019-05-16T00:36:39.433Z,9.20
2019-05-16T00:39:09.006Z,9.11
2019-05-16T00:41:38.770Z,9.11
2019-05-16T00:44:08.587Z,9.07
2019-05-16T00:46:38.728Z,9.10
2019-05-16T00:49:09.582Z,8.97
2019-05-16T00:51:42.485Z,8.97
2019-05-16T00:54:14.605Z,8.96
2019-05-16T00:56:48.740Z,8.96
2019-05-16T00:59:18.447Z,8.90
2019-05-16T01:01:50.029Z,8.95
2019-05-16T01:04:19.586Z,8.95
2019-05-16T01:06:49.304Z,8.96
2019-05-16T01:09:19.459Z,8.96
2019-05-16T01:11:49.648Z,8.99
2019-05-16T01:14:19.298Z,9.07
2019-05-16T01:16:49.047Z,9.07
2019-05-16T01:19:18.997Z,8.96
2019-05-16T01:21:48.794Z,8.96
2019-05-16T01:24:18.924Z,8.96
2019-05-16T01:26:49.005Z,8.97
2019-05-16T01:29:19.138Z,8.97
2019-05-16T01:31:49.476Z,8.95
2019-05-16T01:34:19.061Z,8.95
2019-05-16T01:36:48.790Z,8.98
2019-05-16T01:39:18.421Z,9.04
2019-05-16T01:41:48.286Z,9.11
2019-05-16T01:44:18.476Z,9.11
2019-05-16T01:46:48.230Z,9.11
2019-05-16T01:49:18.749Z,9.15
2019-05-16T01:51:49.390Z,9.15
2019-05-16T01:54:19.215Z,9.11
2019-05-16T01:56:49.085Z,9.05
2019-05-16T01:59:19.526Z,9.05
2019-05-16T02:01:49.263Z,9.11
2019-05-16T02:04:19.174Z,9.23
2019-05-16T02:06:54.466Z,9.26
2019-05-16T02:09:20.230Z,9.12
2019-05-16T02:11:49.894Z,9.20
2019-05-16T02:14:20.026Z,9.14
2019-05-16T02:16:50.040Z,9.13
2019-05-16T02:19:19.650Z,9.13
2019-05-16T02:21:50.680Z,9.15
2019-05-16T02:24:20.345Z,9.12
2019-05-16T02:26:52.410Z,9.12
2019-05-16T02:29:22.944Z,9.27
2019-05-16T02:31:52.663Z,9.30
2019-05-16T02:34:22.932Z,9.30
2019-05-16T02:37:12.001Z,9.21
2019-05-16T02:39:24.086Z,9.21
2019-05-16T02:41:54.164Z,9.13
2019-05-16T02:44:24.627Z,9.24
2019-05-16T02:46:54.835Z,9.24
2019-05-16T02:49:24.547Z,9.17
2019-05-16T02:51:54.107Z,9.23
2019-05-16T02:54:24.056Z,9.05
2019-05-16T02:56:53.939Z,9.11
2019-05-16T02:59:41.630Z,9.11
2019-05-16T03:04:44.602Z,9.52
2019-05-16T03:07:32.908Z,9.44
2019-05-16T03:09:46.673Z,9.44
2019-05-16T03:12:21.131Z,9.36
2019-05-16T03:14:54.591Z,9.26
2019-05-16T03:17:23.716Z,9.26
2019-05-16T03:19:53.979Z,9.21
2019-05-16T03:22:23.678Z,9.30
2019-05-16T03:24:54.022Z,9.27
2019-05-16T03:27:24.025Z,9.19
2019-05-16T03:29:53.728Z,9.06
2019-05-16T03:32:24.459Z,9.06
2019-05-16T03:34:55.380Z,9.07
2019-05-16T03:37:25.453Z,9.11
2019-05-16T03:39:55.465Z,9.11
2019-05-16T03:42:25.151Z,9.00
2019-05-16T03:44:55.100Z,9.00
2019-05-16T03:47:25.341Z,9.00
2019-05-16T03:49:55.212Z,8.90
2019-05-16T03:52:25.113Z,8.90
2019-05-16T03:54:54.969Z,8.78
2019-05-16T03:57:25.099Z,8.78
2019-05-16T03:59:55.058Z,8.85
2019-05-16T04:02:24.926Z,8.85
2019-05-16T04:04:54.771Z,8.87
2019-05-16T04:07:25.167Z,8.85
2019-05-16T04:09:55.463Z,8.91
2019-05-16T04:12:26.136Z,8.82
2019-05-16T04:14:55.931Z,8.78
2019-05-16T04:17:25.796Z,8.76
2019-05-16T04:19:55.626Z,8.79
2019-05-16T04:22:26.209Z,8.79
2019-05-16T04:24:56.046Z,8.72
2019-05-16T04:27:26.243Z,8.82
2019-05-16T04:29:56.391Z,8.82
2019-05-16T04:32:26.206Z,8.78
2019-05-16T04:34:56.324Z,8.84
2019-05-16T04:37:26.530Z,8.77
2019-05-16T04:39:56.799Z,8.77
2019-05-16T04:42:26.593Z,8.64
2019-05-16T04:44:56.937Z,8.74
2019-05-16T04:47:26.803Z,8.74
2019-05-16T04:49:56.781Z,8.79
2019-05-16T04:52:26.362Z,8.79
2019-05-16T04:54:56.139Z,8.86
2019-05-16T04:57:26.397Z,8.86
2019-05-16T04:59:56.361Z,8.86
2019-05-16T05:02:26.649Z,8.95
2019-05-16T05:04:56.501Z,8.86
2019-05-16T05:07:26.222Z,9.19
2019-05-16T05:10:00.641Z,9.19
2019-05-16T05:12:31.443Z,9.01
2019-05-16T05:18:30.332Z,9.10
2019-05-16T05:21:00.854Z,9.24
2019-05-16T05:23:31.525Z,9.31
2019-05-16T05:28:24.591Z,9.74
2019-05-16T05:30:54.831Z,9.71
2019-05-16T05:33:24.646Z,9.71
2019-05-16T05:35:54.529Z,9.71
2019-05-16T05:38:24.723Z,9.52
2019-05-16T05:40:54.326Z,9.61
2019-05-16T05:43:24.982Z,9.64
2019-05-16T05:45:56.083Z,9.40
2019-05-16T05:48:25.711Z,9.40
2019-05-16T05:50:55.796Z,9.22
2019-05-16T05:53:25.993Z,9.22
2019-05-16T05:55:55.618Z,9.27
2019-05-16T05:58:25.294Z,9.19
2019-05-16T06:00:55.676Z,9.19
2019-05-16T06:03:25.597Z,9.14
2019-05-16T06:05:55.404Z,9.14
2019-05-16T06:08:25.308Z,9.27
2019-05-16T06:10:54.982Z,9.01
2019-05-16T06:13:24.790Z,9.08
2019-05-16T06:15:55.002Z,8.96
2019-05-16T06:18:24.901Z,8.96
2019-05-16T06:20:54.578Z,9.01
2019-05-16T06:23:24.249Z,9.00
2019-05-16T06:25:53.706Z,8.93
2019-05-16T06:28:24.004Z,8.98
2019-05-16T06:30:55.531Z,9.04
2019-05-16T06:33:25.340Z,8.91
2019-05-16T06:35:55.843Z,8.85
2019-05-16T06:38:26.184Z,9.01
2019-05-16T06:40:55.907Z,8.89
2019-05-16T06:43:25.631Z,8.89
2019-05-16T06:45:55.446Z,8.91
2019-05-16T06:48:26.101Z,8.94
2019-05-16T06:50:55.773Z,8.94
2019-05-16T06:53:25.774Z,8.89
2019-05-16T06:55:55.334Z,8.83
2019-05-16T06:58:25.195Z,8.76
2019-05-16T07:00:54.911Z,8.85
2019-05-16T07:03:25.046Z,8.87
2019-05-16T07:05:55.004Z,8.87
2019-05-16T07:08:24.835Z,9.23
2019-05-16T07:10:54.659Z,9.10
2019-05-16T07:13:24.314Z,9.14
2019-05-16T07:15:53.970Z,9.04
2019-05-16T07:18:23.653Z,9.36
2019-05-16T07:20:53.602Z,9.36
2019-05-16T07:23:24.428Z,9.29
2019-05-16T07:25:54.574Z,9.27
2019-05-16T07:28:24.288Z,9.54
2019-05-16T07:30:54.244Z,9.54
2019-05-16T07:33:24.014Z,9.48
2019-05-16T07:35:54.082Z,9.68
2019-05-16T07:38:23.976Z,9.91
2019-05-16T07:40:53.963Z,9.83
2019-05-16T07:43:24.140Z,9.70
2019-05-16T07:45:56.393Z,9.74
2019-05-16T07:48:26.038Z,9.74
2019-05-16T07:50:56.519Z,9.68
2019-05-16T07:53:26.154Z,9.68
2019-05-16T07:56:00.092Z,9.63
2019-05-16T07:58:31.451Z,9.63
2019-05-16T08:01:06.815Z,9.77
2019-05-16T08:03:33.137Z,9.89
2019-05-16T08:06:03.045Z,9.89
2019-05-16T08:08:33.013Z,10.00
2019-05-16T08:11:02.563Z,9.82
2019-05-16T08:13:32.087Z,9.92
2019-05-16T08:16:01.965Z,9.92
2019-05-16T08:18:31.982Z,9.79
2019-05-16T08:21:01.687Z,9.96
2019-05-16T08:23:31.196Z,9.79
2019-05-16T08:26:01.727Z,9.92
2019-05-16T08:28:31.393Z,10.14
2019-05-16T08:31:03.211Z,10.24
2019-05-16T08:33:32.856Z,10.24
2019-05-16T08:36:07.899Z,10.30
2019-05-16T08:38:36.305Z,10.71
2019-05-16T08:41:12.853Z,10.82
2019-05-16T08:43:41.119Z,10.82
2019-05-16T08:46:12.248Z,10.67
2019-05-16T08:48:42.267Z,10.93
2019-05-16T08:51:12.488Z,10.60
2019-05-16T08:53:43.525Z,10.83
2019-05-16T08:56:13.434Z,10.83
2019-05-16T08:58:44.333Z,10.72
2019-05-16T09:01:15.138Z,11.24
2019-05-16T09:03:45.385Z,11.38
2019-05-16T09:06:22.947Z,11.45
2019-05-16T09:08:50.479Z,11.45
2019-05-16T09:11:39.244Z,11.74
2019-05-16T09:13:52.254Z,11.96
2019-05-16T09:16:22.986Z,11.99
2019-05-16T09:18:53.960Z,11.69
2019-05-16T09:21:27.449Z,11.69
2019-05-16T09:24:03.735Z,12.03
2019-05-16T09:26:27.963Z,12.03
2019-05-16T09:28:58.056Z,12.23
2019-05-16T09:31:27.917Z,12.23
2019-05-16T09:33:57.605Z,12.24
2019-05-16T09:36:28.174Z,12.43
2019-05-16T09:38:58.151Z,12.62
2019-05-16T09:41:44.889Z,12.37
2019-05-16T09:44:03.885Z,12.78
2019-05-16T09:46:33.682Z,12.70
2019-05-16T09:49:16.681Z,12.89
2019-05-16T09:51:37.425Z,13.12
2019-05-16T09:54:07.412Z,13.04
2019-05-16T09:56:39.642Z,13.04
2019-05-16T09:59:11.146Z,12.62
2019-05-16T10:01:41.381Z,12.55
2019-05-16T10:04:12.372Z,12.97
2019-05-16T10:06:42.202Z,12.66
2019-05-16T10:09:12.201Z,12.66
2019-05-16T10:11:42.891Z,12.54
2019-05-16T10:14:12.962Z,12.54
2019-05-16T10:16:42.702Z,12.67
2019-05-16T10:19:14.106Z,12.63
2019-05-16T10:21:44.141Z,12.55
2019-05-16T10:24:13.958Z,12.55
2019-05-16T10:26:46.547Z,12.63
2019-05-16T10:29:18.300Z,12.94
2019-05-16T10:31:53.589Z,12.74
2019-05-16T10:34:26.430Z,12.83
2019-05-16T10:36:57.501Z,12.70
2019-05-16T10:39:27.156Z,12.70
2019-05-16T10:41:59.248Z,13.00
2019-05-16T10:44:33.049Z,13.39
2019-05-16T10:47:02.593Z,13.39
2019-05-16T10:49:37.746Z,13.09
2019-05-16T10:52:03.381Z,13.17
2019-05-16T10:54:32.984Z,13.23
2019-05-16T10:57:03.220Z,13.54
2019-05-16T11:02:07.365Z,13.54
2019-05-16T11:04:52.798Z,13.71
2019-05-16T11:07:09.099Z,13.71
2019-05-16T11:09:39.409Z,13.74
2019-05-16T11:12:09.464Z,13.65
2019-05-16T11:14:39.982Z,13.65
2019-05-16T11:17:14.083Z,13.69
2019-05-16T11:19:46.409Z,13.69
2019-05-16T11:22:16.457Z,13.94
2019-05-16T11:24:47.940Z,13.47
2019-05-16T11:27:17.986Z,13.75
2019-05-16T11:29:47.666Z,13.75
2019-05-16T11:32:19.664Z,13.75
2019-05-16T11:34:49.310Z,13.96
2019-05-16T11:37:22.043Z,13.79
2019-05-16T11:39:53.544Z,13.20
2019-05-16T11:42:23.761Z,13.59
2019-05-16T11:44:53.695Z,13.59
2019-05-16T11:47:23.247Z,14.42
2019-05-16T11:49:52.930Z,14.34
2019-05-16T11:52:22.736Z,14.34
2019-05-16T11:54:52.303Z,14.55
2019-05-16T11:57:22.000Z,14.33
2019-05-16T11:59:51.575Z,14.10
2019-05-16T12:02:24.200Z,13.93
2019-05-16T12:04:54.053Z,14.04
2019-05-16T12:07:23.652Z,14.04
2019-05-16T12:09:55.760Z,14.13
2019-05-16T12:12:26.960Z,14.13
2019-05-16T12:14:58.203Z,14.41
2019-05-16T12:17:27.984Z,13.48
2019-05-16T12:19:57.721Z,13.48
2019-05-16T12:22:30.621Z,13.61
2019-05-16T12:25:03.689Z,13.61
2019-05-16T12:27:34.236Z,13.61
2019-05-16T12:30:12.971Z,13.91
2019-05-16T12:32:36.729Z,14.40
2019-05-16T12:35:07.128Z,14.40
2019-05-16T12:37:37.467Z,14.48
2019-05-16T12:40:08.041Z,14.22
2019-05-16T12:42:38.534Z,13.88
2019-05-16T12:45:08.380Z,13.83
2019-05-16T12:47:38.151Z,13.68
2019-05-16T12:50:08.531Z,13.68
2019-05-16T12:52:38.847Z,13.54
2019-05-16T12:55:10.014Z,13.34
2019-05-16T12:57:40.161Z,13.05
2019-05-16T13:00:14.926Z,13.01
2019-05-16T13:02:42.239Z,13.07
2019-05-16T13:05:12.248Z,13.07
2019-05-16T13:07:42.151Z,13.04
2019-05-16T13:10:12.759Z,13.04
2019-05-16T13:12:42.446Z,13.04
2019-05-16T13:15:12.062Z,12.81
2019-05-16T13:17:43.238Z,12.40
2019-05-16T13:20:14.453Z,12.44
2019-05-16T13:22:47.133Z,12.32
2019-05-16T13:25:18.234Z,12.29
2019-05-16T13:27:47.830Z,11.96
2019-05-16T13:30:19.459Z,11.96
2019-05-16T13:32:49.385Z,12.25
2019-05-16T13:35:19.666Z,12.25
2019-05-16T13:37:49.533Z,12.11
2019-05-16T13:40:21.392Z,12.24
2019-05-16T13:42:51.337Z,12.29
2019-05-16T13:45:21.515Z,12.57
2019-05-16T13:47:51.060Z,12.41
2019-05-16T13:50:21.323Z,12.35
2019-05-16T13:52:51.515Z,12.37
2019-05-16T13:55:21.421Z,12.45
2019-05-16T13:57:51.240Z,12.45
2019-05-16T14:00:23.144Z,12.25
2019-05-16T14:02:52.978Z,11.82
2019-05-16T14:05:23.185Z,12.19
2019-05-16T14:07:57.254Z,12.37
2019-05-16T14:10:29.655Z,12.60
2019-05-16T14:12:58.428Z,12.60
2019-05-16T14:15:28.091Z,12.26
2019-05-16T14:17:58.113Z,12.17
2019-05-16T14:20:27.940Z,11.85
2019-05-16T14:23:01.388Z,11.85
2019-05-16T14:25:30.239Z,11.55
2019-05-16T14:28:00.416Z,11.56
2019-05-16T14:30:30.431Z,11.57
2019-05-16T14:33:03.143Z,11.65
2019-05-16T14:35:33.073Z,11.43
2019-05-16T14:38:02.675Z,11.43
2019-05-16T14:40:33.019Z,11.32
2019-05-16T14:43:02.847Z,11.32
2019-05-16T14:45:32.516Z,11.28
2019-05-16T14:48:02.685Z,11.20
2019-05-16T14:50:32.351Z,11.72
2019-05-16T14:53:02.007Z,11.59
2019-05-16T14:55:32.207Z,11.69
2019-05-16T14:58:03.460Z,11.53
2019-05-16T15:00:33.668Z,11.39
2019-05-16T15:03:03.371Z,11.25
2019-05-16T15:05:32.959Z,11.25
2019-05-16T15:08:02.776Z,11.48
2019-05-16T15:10:32.786Z,11.73
2019-05-16T15:13:02.555Z,11.73
2019-05-16T15:15:32.522Z,11.75
2019-05-16T15:18:02.757Z,11.91
2019-05-16T15:20:33.377Z,11.97
2019-05-16T15:23:03.340Z,11.80
2019-05-16T15:25:33.306Z,11.59
2019-05-16T15:28:07.313Z,11.59
2019-05-16T15:30:39.079Z,12.04
2019-05-16T15:33:08.752Z,12.11
2019-05-16T15:35:38.467Z,12.11
2019-05-16T15:38:08.328Z,11.91
2019-05-16T15:40:38.019Z,11.74
2019-05-16T15:43:08.370Z,12.10
2019-05-16T15:45:44.991Z,12.00
2019-05-16T15:48:17.234Z,11.84
2019-05-16T15:50:49.144Z,11.84
2019-05-16T15:53:20.507Z,11.92
2019-05-16T15:55:53.468Z,11.85
2019-05-16T15:58:26.545Z,11.74
2019-05-16T16:00:57.943Z,11.78
2019-05-16T16:03:28.143Z,11.73
2019-05-16T16:05:57.877Z,12.05
2019-05-16T16:08:28.429Z,12.26
2019-05-16T16:10:58.518Z,12.25
2019-05-16T16:13:28.157Z,12.25
2019-05-16T16:15:58.135Z,12.29
2019-05-16T16:18:27.776Z,11.80
2019-05-16T16:20:58.889Z,11.73
2019-05-16T16:23:28.626Z,11.85
2019-05-16T16:26:07.067Z,11.91
2019-05-16T16:28:39.170Z,11.85
2019-05-16T16:31:10.126Z,11.72
2019-05-16T16:33:40.227Z,11.81
2019-05-16T16:36:09.935Z,11.86
2019-05-16T16:38:40.882Z,11.82
2019-05-16T16:41:10.456Z,11.74
2019-05-16T16:43:41.077Z,11.74
2019-05-16T16:46:13.644Z,11.67
2019-05-16T16:48:42.256Z,11.50
2019-05-16T16:51:12.147Z,11.50
2019-05-16T16:53:43.134Z,11.26
2019-05-16T16:56:12.788Z,11.26
2019-05-16T16:58:42.510Z,11.26
2019-05-16T17:01:12.177Z,11.03
2019-05-16T17:03:42.223Z,11.22
2019-05-16T17:06:12.914Z,11.14
2019-05-16T17:08:43.462Z,11.14
2019-05-16T17:11:13.171Z,11.05
2019-05-16T17:13:47.062Z,11.03
2019-05-16T17:16:23.058Z,11.03
2019-05-16T17:18:47.485Z,10.69
2019-05-16T17:21:20.771Z,10.61
2019-05-16T17:23:50.377Z,10.57
2019-05-16T17:26:20.526Z,10.78
2019-05-16T17:28:51.089Z,10.81
2019-05-16T17:31:22.390Z,10.88
2019-05-16T17:33:57.520Z,10.87
2019-05-16T17:36:26.563Z,10.87
2019-05-16T17:38:59.112Z,10.82
2019-05-16T17:41:28.888Z,10.77
2019-05-16T17:44:02.237Z,10.75
2019-05-16T17:46:40.641Z,10.56
2019-05-16T17:49:07.831Z,10.56
2019-05-16T17:51:37.657Z,10.62
2019-05-16T17:54:07.364Z,10.59
2019-05-16T17:56:37.357Z,10.40
2019-05-16T17:59:07.833Z,10.24
2019-05-16T18:01:38.600Z,10.32
2019-05-16T18:04:08.742Z,10.35
2019-05-16T18:06:38.676Z,10.41
2019-05-16T18:09:09.251Z,10.38
2019-05-16T18:11:40.117Z,10.30
2019-05-16T18:14:10.153Z,10.30
2019-05-16T18:16:52.564Z,10.17
2019-05-16T18:19:12.419Z,10.24
2019-05-16T18:21:42.283Z,10.27
2019-05-16T18:24:12.145Z,10.16
2019-05-16T18:26:42.003Z,10.12
2019-05-16T18:29:16.293Z,10.05
2019-05-16T18:31:47.104Z,10.01
2019-05-16T18:34:17.664Z,10.01
2019-05-16T18:36:47.356Z,9.90
2019-05-16T18:39:17.446Z,9.82
2019-05-16T18:41:47.583Z,9.73
2019-05-16T18:44:17.460Z,9.60
2019-05-16T18:47:03.732Z,9.75
2019-05-16T18:49:31.081Z,9.83
2019-05-16T18:52:01.130Z,9.79
2019-05-16T18:54:31.825Z,9.72
2019-05-16T18:57:02.367Z,9.69
2019-05-16T18:59:32.179Z,9.67
2019-05-16T19:02:02.369Z,9.68
2019-05-16T19:04:32.481Z,9.56
2019-05-16T19:07:07.909Z,9.66
2019-05-16T19:09:47.241Z,9.44
2019-05-16T19:12:17.552Z,9.47
2019-05-16T19:14:48.395Z,9.47
2019-05-16T19:17:24.225Z,9.51
2019-05-16T19:19:50.380Z,9.59
2019-05-16T19:22:20.360Z,9.59
2019-05-16T19:24:50.472Z,9.64
2019-05-16T19:27:21.140Z,9.64
2019-05-16T19:29:57.661Z,9.57
2019-05-16T19:32:27.634Z,9.67
2019-05-16T19:34:57.538Z,9.67
2019-05-16T19:37:27.787Z,9.65
2019-05-16T19:39:58.496Z,9.48
2019-05-16T19:42:36.855Z,9.56
2019-05-16T19:45:07.377Z,9.56
2019-05-16T19:47:40.984Z,9.67
2019-05-16T19:50:11.088Z,9.67
2019-05-16T19:52:41.892Z,9.70
2019-05-16T19:55:11.665Z,9.70
2019-05-16T20:00:05.743Z,10.01
2019-05-16T20:02:36.847Z,10.01
2019-05-16T20:05:07.028Z,9.99
2019-05-16T20:07:37.458Z,9.95
2019-05-16T20:10:09.823Z,9.95
2019-05-16T20:12:40.160Z,9.66
2019-05-16T20:15:11.794Z,9.59
2019-05-16T20:17:51.949Z,9.58
2019-05-16T20:20:18.602Z,9.58
2019-05-16T20:22:47.940Z,9.47
2019-05-16T20:25:17.765Z,9.46
2019-05-16T20:27:47.550Z,9.35
2019-05-16T20:30:22.549Z,9.33
2019-05-16T20:32:54.408Z,9.33
2019-05-16T20:35:26.685Z,9.37
2019-05-16T20:37:57.128Z,9.39
2019-05-16T20:40:27.282Z,9.36
2019-05-16T20:42:59.450Z,9.36
2019-05-16T20:45:32.252Z,9.27
2019-05-16T20:48:10.759Z,9.20
2019-05-16T20:50:34.034Z,9.35
2019-05-16T20:53:04.049Z,9.35
2019-05-16T20:55:34.146Z,9.25
2019-05-16T20:58:04.292Z,9.17
2019-05-16T21:00:34.168Z,9.17
2019-05-16T21:03:06.848Z,8.91
2019-05-16T21:05:38.190Z,8.92
2019-05-16T21:08:09.703Z,8.92
2019-05-16T21:10:39.173Z,9.08
2019-05-16T21:13:09.172Z,9.15
2019-05-16T21:15:39.309Z,9.04
2019-05-16T21:18:09.147Z,8.99
2019-05-16T21:20:39.682Z,9.11
2019-05-16T21:23:10.000Z,9.15
2019-05-16T21:25:39.916Z,9.19
2019-05-16T21:28:10.100Z,9.19
2019-05-16T21:30:42.794Z,9.30
2019-05-16T21:33:12.633Z,9.30
2019-05-16T21:35:42.817Z,9.20
2019-05-16T21:38:12.770Z,9.21
2019-05-16T21:40:42.464Z,9.18
2019-05-16T21:43:28.090Z,9.04
2019-05-16T21:45:58.783Z,9.04
2019-05-16T21:48:28.469Z,9.08
2019-05-16T21:50:58.469Z,9.08
2019-05-16T21:53:30.059Z,9.21
2019-05-16T21:56:03.125Z,9.04
2019-05-16T21:58:37.117Z,9.00
2019-05-16T22:01:07.188Z,9.05
2019-05-16T22:10:00.413Z,9.04
2019-05-16T22:12:29.885Z,8.99
2019-05-16T22:15:01.203Z,9.10
2019-05-16T22:17:36.766Z,9.10
2019-05-16T22:20:07.106Z,9.05
2019-05-16T22:22:41.356Z,9.05
2019-05-16T22:25:11.217Z,8.92
2019-05-16T22:27:41.801Z,8.92
2019-05-16T22:30:12.234Z,8.96
2019-05-16T22:32:42.003Z,8.96
2019-05-16T22:35:14.118Z,8.78
2019-05-16T22:37:52.077Z,8.75
2019-05-16T22:40:17.227Z,8.98
2019-05-16T22:42:47.347Z,9.03
2019-05-16T22:45:20.155Z,9.03
2019-05-16T22:47:50.007Z,8.86
2019-05-16T22:50:20.071Z,8.96
2019-05-16T22:52:50.026Z,8.91
2019-05-16T22:55:19.838Z,8.90
2019-05-16T22:57:50.007Z,8.82
2019-05-16T23:00:28.130Z,8.82
2019-05-16T23:02:58.099Z,8.79
2019-05-16T23:05:28.395Z,8.92
2019-05-16T23:08:04.948Z,8.91
2019-05-16T23:10:30.164Z,8.91
2019-05-16T23:13:00.524Z,8.93
2019-05-16T23:15:30.667Z,8.69
2019-05-16T23:18:00.646Z,8.69
2019-05-16T23:20:30.900Z,8.93
2019-05-16T23:23:00.608Z,8.85
2019-05-16T23:25:30.276Z,8.90
2019-05-16T23:27:59.899Z,8.95
2019-05-16T23:30:29.519Z,8.85
2019-05-16T23:36:42.681Z,8.75
2019-05-16T23:39:12.573Z,8.80
2019-05-16T23:41:42.762Z,8.82
2019-05-16T23:44:13.120Z,8.87
2019-05-16T23:46:43.533Z,8.90
2019-05-16T23:49:13.383Z,8.90
2019-05-16T23:51:44.112Z,8.85
2019-05-16T23:56:53.147Z,9.21
2019-05-16T23:59:23.151Z,9.21
